sensor_id;sensor_type;location;lat;lon;timestamp;pressure;altitude;pressure_sealevel;temperature;humidity
65384;BME280;51986;52.788;41.368;2023-01-27T00:00:50;100031.41;;;-7.45;58.93
65384;BME280;51986;52.788;41.368;2023-01-27T00:03:17;100045.00;;;-7.34;58.58
65384;BME280;51986;52.788;41.368;2023-01-27T00:05:45;100054.72;;;-7.26;58.39
65384;BME280;51986;52.788;41.368;2023-01-27T00:08:13;100055.50;;;-7.21;59.24
65384;BME280;51986;52.788;41.368;2023-01-27T00:10:40;100066.81;;;-7.11;58.96
65384;BME280;51986;52.788;41.368;2023-01-27T00:13:11;100043.22;;;-7.19;59.89
65384;BME280;51986;52.788;41.368;2023-01-27T00:15:38;100074.28;;;-6.95;59.50
65384;BME280;51986;52.788;41.368;2023-01-27T00:18:06;100068.59;;;-7.02;59.88
65384;BME280;51986;52.788;41.368;2023-01-27T00:20:33;100046.56;;;-6.82;60.25
65384;BME280;51986;52.788;41.368;2023-01-27T00:23:00;100045.00;;;-6.78;60.84
65384;BME280;51986;52.788;41.368;2023-01-27T00:25:27;100032.72;;;-6.71;60.48
65384;BME280;51986;52.788;41.368;2023-01-27T00:27:54;100039.34;;;-6.50;60.52
65384;BME280;51986;52.788;41.368;2023-01-27T00:30:20;100048.34;;;-6.57;61.99
65384;BME280;51986;52.788;41.368;2023-01-27T00:32:47;100044.47;;;-6.50;61.49
65384;BME280;51986;52.788;41.368;2023-01-27T00:35:15;100031.34;;;-6.28;61.13
65384;BME280;51986;52.788;41.368;2023-01-27T00:37:43;100040.81;;;-6.18;61.39
65384;BME280;51986;52.788;41.368;2023-01-27T00:40:12;100059.78;;;-6.09;61.26
65384;BME280;51986;52.788;41.368;2023-01-27T00:42:40;100051.81;;;-6.02;61.00
65384;BME280;51986;52.788;41.368;2023-01-27T00:45:07;100063.09;;;-5.98;61.86
65384;BME280;51986;52.788;41.368;2023-01-27T00:47:34;100053.13;;;-6.15;62.14
65384;BME280;51986;52.788;41.368;2023-01-27T00:50:01;100063.91;;;-6.13;62.73
65384;BME280;51986;52.788;41.368;2023-01-27T00:52:28;100042.25;;;-5.92;62.79
65384;BME280;51986;52.788;41.368;2023-01-27T00:54:55;100063.31;;;-5.90;62.73
65384;BME280;51986;52.788;41.368;2023-01-27T00:57:23;100050.72;;;-5.91;63.68
65384;BME280;51986;52.788;41.368;2023-01-27T00:59:50;100038.06;;;-5.72;62.82
65384;BME280;51986;52.788;41.368;2023-01-27T01:02:17;100038.06;;;-5.72;63.33
65384;BME280;51986;52.788;41.368;2023-01-27T01:04:44;100038.00;;;-5.62;63.21
65384;BME280;51986;52.788;41.368;2023-01-27T01:07:11;100045.72;;;-5.57;63.04
65384;BME280;51986;52.788;41.368;2023-01-27T01:09:37;100047.97;;;-5.50;63.48
65384;BME280;51986;52.788;41.368;2023-01-27T01:12:04;100030.81;;;-5.60;63.13
65384;BME280;51986;52.788;41.368;2023-01-27T01:14:31;100015.84;;;-5.53;63.13
65384;BME280;51986;52.788;41.368;2023-01-27T01:16:58;100038.44;;;-5.45;63.30
65384;BME280;51986;52.788;41.368;2023-01-27T01:19:25;100019.44;;;-5.54;64.28
65384;BME280;51986;52.788;41.368;2023-01-27T01:21:52;100017.13;;;-5.50;64.34
65384;BME280;51986;52.788;41.368;2023-01-27T01:24:19;100029.97;;;-5.50;64.48
65384;BME280;51986;52.788;41.368;2023-01-27T01:26:46;100013.22;;;-5.43;64.30
65384;BME280;51986;52.788;41.368;2023-01-27T01:29:13;100027.84;;;-5.38;64.51
65384;BME280;51986;52.788;41.368;2023-01-27T01:31:39;99984.72;;;-5.46;64.82
65384;BME280;51986;52.788;41.368;2023-01-27T01:34:07;100001.38;;;-5.44;65.11
65384;BME280;51986;52.788;41.368;2023-01-27T01:36:34;99983.97;;;-5.52;65.79
65384;BME280;51986;52.788;41.368;2023-01-27T01:39:03;100013.75;;;-5.46;66.05
65384;BME280;51986;52.788;41.368;2023-01-27T01:41:30;100012.66;;;-5.34;65.82
65384;BME280;51986;52.788;41.368;2023-01-27T01:43:57;100021.44;;;-5.41;65.58
65384;BME280;51986;52.788;41.368;2023-01-27T01:46:24;99985.38;;;-5.30;65.78
65384;BME280;51986;52.788;41.368;2023-01-27T01:49:00;100016.00;;;-5.39;65.39
65384;BME280;51986;52.788;41.368;2023-01-27T01:54:09;100007.72;;;-4.97;64.18
65384;BME280;51986;52.788;41.368;2023-01-27T01:56:42;100006.22;;;-4.98;63.96
65384;BME280;51986;52.788;41.368;2023-01-27T01:59:23;100019.63;;;-5.06;64.14
65384;BME280;51986;52.788;41.368;2023-01-27T02:01:54;100028.28;;;-4.92;64.30
65384;BME280;51986;52.788;41.368;2023-01-27T02:04:26;100029.97;;;-5.11;64.86
65384;BME280;51986;52.788;41.368;2023-01-27T02:07:07;100026.25;;;-4.95;64.39
65384;BME280;51986;52.788;41.368;2023-01-27T02:09:38;100020.31;;;-4.90;63.51
65384;BME280;51986;52.788;41.368;2023-01-27T02:12:05;100018.53;;;-4.95;63.22
65384;BME280;51986;52.788;41.368;2023-01-27T02:14:35;100042.00;;;-5.01;63.89
65384;BME280;51986;52.788;41.368;2023-01-27T02:17:03;100014.31;;;-5.15;64.00
65384;BME280;51986;52.788;41.368;2023-01-27T02:19:57;100028.50;;;-4.88;63.85
65384;BME280;51986;52.788;41.368;2023-01-27T02:26:06;100042.91;;;-4.87;63.62
65384;BME280;51986;52.788;41.368;2023-01-27T02:28:35;100020.69;;;-5.07;63.78
65384;BME280;51986;52.788;41.368;2023-01-27T02:31:02;100026.50;;;-4.96;63.54
65384;BME280;51986;52.788;41.368;2023-01-27T02:33:32;100038.94;;;-5.03;63.98
65384;BME280;51986;52.788;41.368;2023-01-27T02:36:04;100025.69;;;-4.92;63.63
65384;BME280;51986;52.788;41.368;2023-01-27T02:38:36;100024.13;;;-4.88;64.07
65384;BME280;51986;52.788;41.368;2023-01-27T02:43:51;100027.84;;;-4.70;62.92
65384;BME280;51986;52.788;41.368;2023-01-27T02:46:19;100042.97;;;-4.63;62.65
65384;BME280;51986;52.788;41.368;2023-01-27T02:48:46;100005.44;;;-4.69;63.51
65384;BME280;51986;52.788;41.368;2023-01-27T02:51:13;100037.50;;;-4.56;63.16
65384;BME280;51986;52.788;41.368;2023-01-27T02:53:42;100026.34;;;-4.76;64.04
65384;BME280;51986;52.788;41.368;2023-01-27T02:56:09;100044.19;;;-4.55;63.88
65384;BME280;51986;52.788;41.368;2023-01-27T02:58:37;100032.91;;;-4.60;62.77
65384;BME280;51986;52.788;41.368;2023-01-27T03:01:10;100019.34;;;-4.70;63.96
65384;BME280;51986;52.788;41.368;2023-01-27T03:03:38;100034.19;;;-4.62;63.94
65384;BME280;51986;52.788;41.368;2023-01-27T03:06:05;100008.88;;;-4.79;63.90
65384;BME280;51986;52.788;41.368;2023-01-27T03:08:32;100013.66;;;-4.67;64.54
65384;BME280;51986;52.788;41.368;2023-01-27T03:10:59;100045.78;;;-4.60;63.78
65384;BME280;51986;52.788;41.368;2023-01-27T03:13:26;100032.75;;;-4.73;64.12
65384;BME280;51986;52.788;41.368;2023-01-27T03:15:56;100021.38;;;-4.67;63.77
65384;BME280;51986;52.788;41.368;2023-01-27T03:18:24;100044.34;;;-4.76;64.28
65384;BME280;51986;52.788;41.368;2023-01-27T03:20:56;100050.53;;;-4.77;64.51
65384;BME280;51986;52.788;41.368;2023-01-27T03:23:26;100066.00;;;-4.48;64.51
65384;BME280;51986;52.788;41.368;2023-01-27T03:25:53;100077.38;;;-4.54;64.17
65384;BME280;51986;52.788;41.368;2023-01-27T03:28:21;100057.09;;;-4.61;63.84
65384;BME280;51986;52.788;41.368;2023-01-27T03:31:10;100035.84;;;-4.47;64.35
65384;BME280;51986;52.788;41.368;2023-01-27T03:33:43;100036.75;;;-4.33;63.41
65384;BME280;51986;52.788;41.368;2023-01-27T03:36:30;100040.59;;;-4.30;63.60
65384;BME280;51986;52.788;41.368;2023-01-27T03:38:57;100013.94;;;-4.45;63.00
65384;BME280;51986;52.788;41.368;2023-01-27T03:41:24;100039.25;;;-4.28;63.19
65384;BME280;51986;52.788;41.368;2023-01-27T03:43:51;100025.91;;;-4.30;63.54
65384;BME280;51986;52.788;41.368;2023-01-27T03:46:19;100032.56;;;-4.05;62.81
65384;BME280;51986;52.788;41.368;2023-01-27T03:48:51;100020.25;;;-4.08;62.35
65384;BME280;51986;52.788;41.368;2023-01-27T03:51:21;100030.81;;;-4.34;63.13
65384;BME280;51986;52.788;41.368;2023-01-27T03:53:49;100042.69;;;-4.32;63.50
65384;BME280;51986;52.788;41.368;2023-01-27T03:56:17;100026.66;;;-4.29;64.00
65384;BME280;51986;52.788;41.368;2023-01-27T03:58:44;100040.47;;;-3.96;62.57
65384;BME280;51986;52.788;41.368;2023-01-27T04:01:14;100034.06;;;-3.99;62.44
65384;BME280;51986;52.788;41.368;2023-01-27T04:03:42;100022.59;;;-3.88;62.77
65384;BME280;51986;52.788;41.368;2023-01-27T04:06:26;100066.53;;;-3.98;62.33
65384;BME280;51986;52.788;41.368;2023-01-27T04:08:54;100039.81;;;-4.07;62.66
65384;BME280;51986;52.788;41.368;2023-01-27T04:11:21;100036.38;;;-4.21;63.66
65384;BME280;51986;52.788;41.368;2023-01-27T04:13:49;100047.50;;;-4.26;63.41
65384;BME280;51986;52.788;41.368;2023-01-27T04:16:16;100025.19;;;-4.12;63.16
65384;BME280;51986;52.788;41.368;2023-01-27T04:18:43;100065.88;;;-3.90;63.20
65384;BME280;51986;52.788;41.368;2023-01-27T04:21:10;100043.81;;;-3.96;62.57
65384;BME280;51986;52.788;41.368;2023-01-27T04:23:36;100051.38;;;-4.04;62.74
65384;BME280;51986;52.788;41.368;2023-01-27T04:26:03;100048.75;;;-3.99;62.87
65384;BME280;51986;52.788;41.368;2023-01-27T04:28:30;100047.84;;;-3.90;63.25
65384;BME280;51986;52.788;41.368;2023-01-27T04:31:10;100063.69;;;-3.77;62.89
65384;BME280;51986;52.788;41.368;2023-01-27T04:33:37;100043.78;;;-3.72;62.14
65384;BME280;51986;52.788;41.368;2023-01-27T04:36:04;100061.66;;;-3.80;62.16
65384;BME280;51986;52.788;41.368;2023-01-27T04:38:31;100071.53;;;-3.64;62.35
65384;BME280;51986;52.788;41.368;2023-01-27T04:40:59;100056.72;;;-3.77;62.09
65384;BME280;51986;52.788;41.368;2023-01-27T04:43:26;100052.69;;;-3.83;62.26
65384;BME280;51986;52.788;41.368;2023-01-27T04:45:53;100065.53;;;-3.59;62.16
65384;BME280;51986;52.788;41.368;2023-01-27T04:48:20;100048.94;;;-3.53;61.84
65384;BME280;51986;52.788;41.368;2023-01-27T04:50:47;100091.81;;;-3.57;62.19
65384;BME280;51986;52.788;41.368;2023-01-27T04:53:14;100070.06;;;-3.70;61.92
65384;BME280;51986;52.788;41.368;2023-01-27T04:55:47;100078.38;;;-3.54;62.37
65384;BME280;51986;52.788;41.368;2023-01-27T04:58:16;100068.78;;;-3.72;62.00
65384;BME280;51986;52.788;41.368;2023-01-27T05:00:44;100082.59;;;-3.63;62.11
65384;BME280;51986;52.788;41.368;2023-01-27T05:03:11;100068.66;;;-3.62;62.26
65384;BME280;51986;52.788;41.368;2023-01-27T05:05:38;100073.50;;;-3.55;61.68
65384;BME280;51986;52.788;41.368;2023-01-27T05:08:06;100055.09;;;-3.49;61.41
65384;BME280;51986;52.788;41.368;2023-01-27T05:10:34;100033.00;;;-3.36;61.36
65384;BME280;51986;52.788;41.368;2023-01-27T05:13:01;100049.56;;;-3.42;60.68
65384;BME280;51986;52.788;41.368;2023-01-27T05:15:29;100056.13;;;-3.31;61.16
65384;BME280;51986;52.788;41.368;2023-01-27T05:17:56;100084.50;;;-3.31;60.85
65384;BME280;51986;52.788;41.368;2023-01-27T05:20:23;100087.56;;;-3.10;61.44
65384;BME280;51986;52.788;41.368;2023-01-27T05:22:50;100084.09;;;-3.19;60.72
65384;BME280;51986;52.788;41.368;2023-01-27T05:25:19;100052.97;;;-3.28;60.39
65384;BME280;51986;52.788;41.368;2023-01-27T05:27:46;100070.69;;;-3.21;60.88
65384;BME280;51986;52.788;41.368;2023-01-27T05:30:13;100081.78;;;-3.02;61.00
65384;BME280;51986;52.788;41.368;2023-01-27T05:32:40;100076.94;;;-3.09;60.51
65384;BME280;51986;52.788;41.368;2023-01-27T05:35:07;100103.88;;;-3.15;60.82
65384;BME280;51986;52.788;41.368;2023-01-27T05:37:34;100073.97;;;-3.35;61.51
65384;BME280;51986;52.788;41.368;2023-01-27T05:40:01;100088.91;;;-3.32;61.66
65384;BME280;51986;52.788;41.368;2023-01-27T05:42:28;100074.38;;;-3.27;61.44
65384;BME280;51986;52.788;41.368;2023-01-27T05:44:55;100082.41;;;-3.10;61.11
65384;BME280;51986;52.788;41.368;2023-01-27T05:47:22;100058.84;;;-3.22;60.90
65384;BME280;51986;52.788;41.368;2023-01-27T05:49:49;100086.66;;;-3.00;61.33
65384;BME280;51986;52.788;41.368;2023-01-27T05:52:16;100094.47;;;-3.06;60.58
65384;BME280;51986;52.788;41.368;2023-01-27T05:54:43;100084.75;;;-2.95;60.73
65384;BME280;51986;52.788;41.368;2023-01-27T05:57:10;100090.34;;;-2.88;60.49
65384;BME280;51986;52.788;41.368;2023-01-27T05:59:37;100099.13;;;-2.89;60.21
65384;BME280;51986;52.788;41.368;2023-01-27T06:02:04;100091.03;;;-3.01;60.42
65384;BME280;51986;52.788;41.368;2023-01-27T06:04:31;100095.66;;;-2.98;60.47
65384;BME280;51986;52.788;41.368;2023-01-27T06:06:58;100101.47;;;-2.73;60.27
65384;BME280;51986;52.788;41.368;2023-01-27T06:09:25;100065.16;;;-2.63;59.57
65384;BME280;51986;52.788;41.368;2023-01-27T06:11:52;100082.09;;;-2.90;59.81
65384;BME280;51986;52.788;41.368;2023-01-27T06:14:19;100099.41;;;-3.09;60.71
65384;BME280;51986;52.788;41.368;2023-01-27T06:16:46;100101.59;;;-2.97;60.43
65384;BME280;51986;52.788;41.368;2023-01-27T06:19:13;100103.91;;;-2.63;59.30
65384;BME280;51986;52.788;41.368;2023-01-27T06:21:40;100115.38;;;-2.56;59.79
65384;BME280;51986;52.788;41.368;2023-01-27T06:24:07;100133.13;;;-2.49;59.05
65384;BME280;51986;52.788;41.368;2023-01-27T06:26:34;100104.53;;;-2.39;59.06
65384;BME280;51986;52.788;41.368;2023-01-27T06:29:01;100104.50;;;-2.53;59.62
65384;BME280;51986;52.788;41.368;2023-01-27T06:31:28;100115.13;;;-2.54;59.45
65384;BME280;51986;52.788;41.368;2023-01-27T06:33:55;100098.75;;;-2.49;60.02
65384;BME280;51986;52.788;41.368;2023-01-27T06:36:24;100088.94;;;-2.34;59.09
65384;BME280;51986;52.788;41.368;2023-01-27T06:38:52;100115.06;;;-2.35;59.30
65384;BME280;51986;52.788;41.368;2023-01-27T06:41:22;100083.72;;;-2.47;59.19
65384;BME280;51986;52.788;41.368;2023-01-27T06:43:49;100113.16;;;-2.30;59.34
65384;BME280;51986;52.788;41.368;2023-01-27T06:46:16;100099.81;;;-2.37;59.14
65384;BME280;51986;52.788;41.368;2023-01-27T06:48:43;100097.34;;;-2.28;58.83
65384;BME280;51986;52.788;41.368;2023-01-27T06:51:11;100096.69;;;-2.20;59.10
65384;BME280;51986;52.788;41.368;2023-01-27T06:53:38;100103.41;;;-2.05;58.06
65384;BME280;51986;52.788;41.368;2023-01-27T06:56:05;100110.28;;;-2.14;58.97
65384;BME280;51986;52.788;41.368;2023-01-27T06:58:33;100090.00;;;-2.07;58.16
65384;BME280;51986;52.788;41.368;2023-01-27T07:01:00;100074.66;;;-2.04;58.15
65384;BME280;51986;52.788;41.368;2023-01-27T07:03:27;100077.66;;;-2.10;57.80
65384;BME280;51986;52.788;41.368;2023-01-27T07:05:54;100061.19;;;-2.14;57.75
65384;BME280;51986;52.788;41.368;2023-01-27T07:08:21;100091.25;;;-2.05;58.36
65384;BME280;51986;52.788;41.368;2023-01-27T07:10:48;100087.78;;;-2.00;58.44
65384;BME280;51986;52.788;41.368;2023-01-27T07:13:15;100105.22;;;-2.06;58.21
65384;BME280;51986;52.788;41.368;2023-01-27T07:15:42;100113.66;;;-2.00;57.79
65384;BME280;51986;52.788;41.368;2023-01-27T07:18:10;100087.78;;;-2.28;57.98
65384;BME280;51986;52.788;41.368;2023-01-27T07:20:38;100098.34;;;-1.96;57.99
65384;BME280;51986;52.788;41.368;2023-01-27T07:23:05;100110.22;;;-1.95;58.06
65384;BME280;51986;52.788;41.368;2023-01-27T07:25:33;100113.66;;;-1.86;57.75
65384;BME280;51986;52.788;41.368;2023-01-27T07:28:01;100108.38;;;-1.81;57.77
65384;BME280;51986;52.788;41.368;2023-01-27T07:30:28;100119.41;;;-1.76;57.31
65384;BME280;51986;52.788;41.368;2023-01-27T07:33:02;100095.94;;;-2.07;58.12
65384;BME280;51986;52.788;41.368;2023-01-27T07:35:29;100099.75;;;-1.77;57.34
65384;BME280;51986;52.788;41.368;2023-01-27T07:37:57;100111.16;;;-1.91;57.20
65384;BME280;51986;52.788;41.368;2023-01-27T07:40:24;100125.06;;;-1.73;57.12
65384;BME280;51986;52.788;41.368;2023-01-27T07:42:51;100117.09;;;-1.63;57.49
65384;BME280;51986;52.788;41.368;2023-01-27T07:45:18;100118.63;;;-1.76;56.71
65384;BME280;51986;52.788;41.368;2023-01-27T07:47:45;100097.63;;;-1.74;57.01
65384;BME280;51986;52.788;41.368;2023-01-27T07:50:12;100110.00;;;-1.58;56.33
65384;BME280;51986;52.788;41.368;2023-01-27T07:52:40;100084.81;;;-1.66;56.54
65384;BME280;51986;52.788;41.368;2023-01-27T07:55:07;100112.06;;;-1.46;55.97
65384;BME280;51986;52.788;41.368;2023-01-27T07:57:34;100092.84;;;-1.54;56.18
65384;BME280;51986;52.788;41.368;2023-01-27T08:00:02;100126.06;;;-1.33;55.90
65384;BME280;51986;52.788;41.368;2023-01-27T08:02:37;100117.41;;;-1.29;56.13
65384;BME280;51986;52.788;41.368;2023-01-27T08:05:04;100110.91;;;-1.26;55.30
65384;BME280;51986;52.788;41.368;2023-01-27T08:07:31;100128.69;;;-1.11;55.49
65384;BME280;51986;52.788;41.368;2023-01-27T08:09:58;100100.97;;;-1.10;54.83
65384;BME280;51986;52.788;41.368;2023-01-27T08:12:25;100102.38;;;-1.04;55.38
65384;BME280;51986;52.788;41.368;2023-01-27T08:14:52;100110.84;;;-0.90;54.92
65384;BME280;51986;52.788;41.368;2023-01-27T08:17:19;100090.84;;;-0.98;55.06
65384;BME280;51986;52.788;41.368;2023-01-27T08:19:46;100105.72;;;-1.26;55.37
65384;BME280;51986;52.788;41.368;2023-01-27T08:22:13;100078.63;;;-1.06;55.00
65384;BME280;51986;52.788;41.368;2023-01-27T08:24:40;100106.97;;;-1.01;55.30
65384;BME280;51986;52.788;41.368;2023-01-27T08:27:07;100101.34;;;-1.17;55.19
65384;BME280;51986;52.788;41.368;2023-01-27T08:29:34;100088.41;;;-1.17;54.98
65384;BME280;51986;52.788;41.368;2023-01-27T08:32:01;100102.72;;;-0.75;55.18
65384;BME280;51986;52.788;41.368;2023-01-27T08:34:28;100100.28;;;-1.02;54.58
65384;BME280;51986;52.788;41.368;2023-01-27T08:36:55;100124.50;;;-0.98;54.77
65384;BME280;51986;52.788;41.368;2023-01-27T08:39:22;100111.94;;;-0.91;54.40
65384;BME280;51986;52.788;41.368;2023-01-27T08:41:49;100098.09;;;-0.86;54.31
65384;BME280;51986;52.788;41.368;2023-01-27T08:44:16;100102.66;;;-0.83;54.27
65384;BME280;51986;52.788;41.368;2023-01-27T08:46:43;100079.03;;;-0.90;54.48
65384;BME280;51986;52.788;41.368;2023-01-27T08:49:11;100110.22;;;-0.95;54.51
65384;BME280;51986;52.788;41.368;2023-01-27T08:51:38;100088.91;;;-0.92;53.90
65384;BME280;51986;52.788;41.368;2023-01-27T08:54:06;100090.66;;;-0.79;53.95
65384;BME280;51986;52.788;41.368;2023-01-27T08:56:33;100092.50;;;-0.80;53.47
65384;BME280;51986;52.788;41.368;2023-01-27T08:59:00;100085.78;;;-0.81;53.61
65384;BME280;51986;52.788;41.368;2023-01-27T09:01:27;100097.41;;;-0.69;53.95
65384;BME280;51986;52.788;41.368;2023-01-27T09:03:54;100099.69;;;-0.77;53.47
65384;BME280;51986;52.788;41.368;2023-01-27T09:06:21;100080.34;;;-0.70;53.54
65384;BME280;51986;52.788;41.368;2023-01-27T09:08:48;100095.41;;;-0.50;53.64
65384;BME280;51986;52.788;41.368;2023-01-27T09:11:16;100103.66;;;-0.48;53.64
65384;BME280;51986;52.788;41.368;2023-01-27T09:13:43;100078.19;;;-0.46;52.86
65384;BME280;51986;52.788;41.368;2023-01-27T09:16:10;100085.22;;;-0.47;52.87
65384;BME280;51986;52.788;41.368;2023-01-27T09:18:37;100105.75;;;-0.50;52.72
65384;BME280;51986;52.788;41.368;2023-01-27T09:21:05;100073.66;;;-0.71;53.43
65384;BME280;51986;52.788;41.368;2023-01-27T09:23:33;100105.84;;;-0.64;53.38
65384;BME280;51986;52.788;41.368;2023-01-27T09:26:00;100099.53;;;-0.49;53.51
65384;BME280;51986;52.788;41.368;2023-01-27T09:28:27;100075.78;;;-0.42;51.99
65384;BME280;51986;52.788;41.368;2023-01-27T09:30:57;100069.88;;;-0.65;52.79
65384;BME280;51986;52.788;41.368;2023-01-27T09:33:25;100067.16;;;-0.60;53.29
65384;BME280;51986;52.788;41.368;2023-01-27T09:35:58;100076.41;;;-0.68;53.06
65384;BME280;51986;52.788;41.368;2023-01-27T09:38:27;100061.44;;;-0.49;53.02
65384;BME280;51986;52.788;41.368;2023-01-27T09:41:12;100065.72;;;-0.44;52.58
65384;BME280;51986;52.788;41.368;2023-01-27T09:53:09;100049.75;;;-0.29;52.41
65384;BME280;51986;52.788;41.368;2023-01-27T09:55:32;100082.38;;;0.03;51.45
65384;BME280;51986;52.788;41.368;2023-01-27T10:06:02;100053.81;;;0.12;50.43
65384;BME280;51986;52.788;41.368;2023-01-27T10:20:28;100004.88;;;0.71;48.83
65384;BME280;51986;52.788;41.368;2023-01-27T10:28:15;100020.38;;;0.97;48.46
65384;BME280;51986;52.788;41.368;2023-01-27T10:33:46;100051.22;;;1.16;48.12
65384;BME280;51986;52.788;41.368;2023-01-27T10:36:28;100006.38;;;0.90;48.65
65384;BME280;51986;52.788;41.368;2023-01-27T10:45:18;99999.47;;;0.94;48.92
65384;BME280;51986;52.788;41.368;2023-01-27T10:47:37;100010.19;;;0.84;48.47
65384;BME280;51986;52.788;41.368;2023-01-27T10:50:16;100007.59;;;0.75;49.38
65384;BME280;51986;52.788;41.368;2023-01-27T10:55:46;100018.59;;;0.54;49.89
65384;BME280;51986;52.788;41.368;2023-01-27T11:00:52;100027.28;;;0.15;50.05
65384;BME280;51986;52.788;41.368;2023-01-27T11:03:48;100011.13;;;0.53;49.29
65384;BME280;51986;52.788;41.368;2023-01-27T11:06:33;100009.75;;;0.47;50.04
65384;BME280;51986;52.788;41.368;2023-01-27T11:09:29;100023.78;;;0.28;49.64
65384;BME280;51986;52.788;41.368;2023-01-27T11:12:01;100025.00;;;0.14;51.19
65384;BME280;51986;52.788;41.368;2023-01-27T11:14:31;100030.97;;;0.32;50.63
65384;BME280;51986;52.788;41.368;2023-01-27T11:17:24;100035.25;;;0.27;50.61
65384;BME280;51986;52.788;41.368;2023-01-27T11:22:26;100015.69;;;0.04;51.20
65384;BME280;51986;52.788;41.368;2023-01-27T11:25:23;100018.72;;;0.06;51.19
65384;BME280;51986;52.788;41.368;2023-01-27T11:36:14;100036.78;;;-0.29;51.19
65384;BME280;51986;52.788;41.368;2023-01-27T11:38:41;100021.88;;;-0.23;51.43
65384;BME280;51986;52.788;41.368;2023-01-27T11:41:09;100029.34;;;-0.13;51.37
65384;BME280;51986;52.788;41.368;2023-01-27T11:43:37;100038.94;;;-0.22;51.89
65384;BME280;51986;52.788;41.368;2023-01-27T11:46:07;100017.44;;;-0.23;51.62
65384;BME280;51986;52.788;41.368;2023-01-27T11:48:41;100019.50;;;-0.42;51.71
65384;BME280;51986;52.788;41.368;2023-01-27T11:51:20;100031.59;;;-0.29;51.67
65384;BME280;51986;52.788;41.368;2023-01-27T11:56:38;99993.59;;;-0.42;51.92
65384;BME280;51986;52.788;41.368;2023-01-27T11:59:18;99992.22;;;-0.48;52.21
65384;BME280;51986;52.788;41.368;2023-01-27T12:01:50;100028.69;;;-0.36;51.56
65384;BME280;51986;52.788;41.368;2023-01-27T12:04:23;100012.47;;;-0.50;51.51
65384;BME280;51986;52.788;41.368;2023-01-27T12:07:01;100020.63;;;-0.34;52.29
65384;BME280;51986;52.788;41.368;2023-01-27T12:09:38;99988.34;;;-0.59;52.17
65384;BME280;51986;52.788;41.368;2023-01-27T12:14:52;99999.06;;;-0.52;52.81
65384;BME280;51986;52.788;41.368;2023-01-27T12:20:01;100040.44;;;-0.69;52.90
65384;BME280;51986;52.788;41.368;2023-01-27T12:22:33;100026.03;;;-0.84;52.51
65384;BME280;51986;52.788;41.368;2023-01-27T12:25:20;100031.03;;;-0.88;53.50
65384;BME280;51986;52.788;41.368;2023-01-27T12:27:54;100019.50;;;-0.82;53.30
65384;BME280;51986;52.788;41.368;2023-01-27T12:30:27;100018.75;;;-0.74;53.21
65384;BME280;51986;52.788;41.368;2023-01-27T12:32:55;100024.91;;;-0.61;52.51
65384;BME280;51986;52.788;41.368;2023-01-27T12:38:23;100030.13;;;-0.83;53.09
65384;BME280;51986;52.788;41.368;2023-01-27T12:40:58;99991.19;;;-0.69;53.01
65384;BME280;51986;52.788;41.368;2023-01-27T12:43:26;100019.34;;;-0.45;51.96
65384;BME280;51986;52.788;41.368;2023-01-27T12:48:32;100025.91;;;-0.79;52.91
65384;BME280;51986;52.788;41.368;2023-01-27T12:51:14;100010.28;;;-0.96;53.00
65384;BME280;51986;52.788;41.368;2023-01-27T12:53:41;100033.78;;;-1.15;53.64
65384;BME280;51986;52.788;41.368;2023-01-27T12:56:14;100028.00;;;-1.35;53.73
65384;BME280;51986;52.788;41.368;2023-01-27T12:58:44;100019.53;;;-1.49;54.74
65384;BME280;51986;52.788;41.368;2023-01-27T13:01:31;100021.38;;;-1.41;54.75
65384;BME280;51986;52.788;41.368;2023-01-27T13:04:15;100014.97;;;-1.80;55.42
65384;BME280;51986;52.788;41.368;2023-01-27T13:07:35;100005.72;;;-1.94;55.49
65384;BME280;51986;52.788;41.368;2023-01-27T13:12:27;100022.19;;;-1.90;56.10
65384;BME280;51986;52.788;41.368;2023-01-27T13:15:15;100030.50;;;-1.80;55.54
65384;BME280;51986;52.788;41.368;2023-01-27T13:17:44;100018.22;;;-1.74;55.18
65384;BME280;51986;52.788;41.368;2023-01-27T13:28:06;100003.16;;;-2.22;56.04
65384;BME280;51986;52.788;41.368;2023-01-27T13:30:40;100038.97;;;-2.29;56.46
65384;BME280;51986;52.788;41.368;2023-01-27T13:33:38;100038.56;;;-2.22;56.76
65384;BME280;51986;52.788;41.368;2023-01-27T13:36:23;100005.84;;;-2.68;57.39
65384;BME280;51986;52.788;41.368;2023-01-27T13:39:00;100017.47;;;-2.85;58.61
65384;BME280;51986;52.788;41.368;2023-01-27T13:41:38;100020.63;;;-2.88;57.88
65384;BME280;51986;52.788;41.368;2023-01-27T13:44:30;100005.81;;;-3.15;59.10
65384;BME280;51986;52.788;41.368;2023-01-27T13:47:06;100006.66;;;-3.19;58.88
65384;BME280;51986;52.788;41.368;2023-01-27T13:49:48;100035.81;;;-3.38;58.97
65384;BME280;51986;52.788;41.368;2023-01-27T13:52:16;100043.84;;;-3.39;59.82
65384;BME280;51986;52.788;41.368;2023-01-27T13:54:43;100028.09;;;-3.57;60.00
65384;BME280;51986;52.788;41.368;2023-01-27T13:57:23;100044.28;;;-3.70;60.67
65384;BME280;51986;52.788;41.368;2023-01-27T14:00:15;100031.63;;;-3.90;61.51
65384;BME280;51986;52.788;41.368;2023-01-27T14:03:05;100035.09;;;-4.00;61.90
65384;BME280;51986;52.788;41.368;2023-01-27T14:11:15;100065.00;;;-4.52;63.40
65384;BME280;51986;52.788;41.368;2023-01-27T14:14:20;100019.22;;;-4.55;62.91
65384;BME280;51986;52.788;41.368;2023-01-27T14:25:12;100040.47;;;-5.02;65.19
65384;BME280;51986;52.788;41.368;2023-01-27T14:27:45;100030.63;;;-4.95;64.61
65384;BME280;51986;52.788;41.368;2023-01-27T14:31:03;100033.97;;;-4.95;64.30
65384;BME280;51986;52.788;41.368;2023-01-27T14:36:25;100038.94;;;-4.74;64.21
65384;BME280;51986;52.788;41.368;2023-01-27T14:52:45;100041.94;;;-4.96;65.45
65384;BME280;51986;52.788;41.368;2023-01-27T14:58:03;100071.03;;;-4.96;64.89
65384;BME280;51986;52.788;41.368;2023-01-27T15:15:02;100057.59;;;-4.88;65.36
65384;BME280;51986;52.788;41.368;2023-01-27T15:25:39;100041.00;;;-5.05;65.98